Terminal Aerodrome Forecast
Issued by NWS Cleveland, OH

Home | Current Version | Previous Version | Graphics & Text | Print | Product List | Glossary On
Versions: 1 2 3 4 5 6 7 8 9 10 11 12 13 14 15 16 17 18 19 20
000
FTUS41 KCLE 072300
TAFTOL
TAF
KTOL 072337Z 0800/0824 24006KT P6SM SCT060
     FM080800 22005KT 4SM BR SCT040 BKN150
     FM081100 20010KT P6SM VCSH BKN040 OVC100
     FM081500 23010G18KT 5SM -SHRA VCTS BKN025CB OVC060
     FM081800 27012G20KT P6SM BKN050=

USA.gov is the U.S. government's official web portal to all federal, state and local government web resources and services.